Terminal Aerodrome Forecast
Issued by NWS Quad Cities IA IL

Home | Current Version | Previous Version | Text Only | Print | Product List | Glossary Off
Versions: 1 2 3 4 5 6 7 8 9 10 11 12 13 14 15 16 17 18 19 20 21 22 23

000
FTUS43 KDVN 181700
TAFMLI
TAF
KMLI 181725Z 1818/1918 VRB02KT P6SM BKN100
     FM191100 VRB02KT P6SM BKN040=

USA.gov is the U.S. government's official web portal to all federal, state and local government web resources and services.